sensor_id;sensor_type;location;lat;lon;timestamp;P1;durP1;ratioP1;P2;durP2;ratioP2
54037;SDS011;39954;48.844;9.726;2023-03-17T00:00:36;22.30;;;8.65;;
54037;SDS011;39954;48.844;9.726;2023-03-17T00:01:41;21.95;;;8.55;;
54037;SDS011;39954;48.844;9.726;2023-03-17T00:02:51;86.43;;;19.52;;
54037;SDS011;39954;48.844;9.726;2023-03-17T00:03:53;28.88;;;8.70;;
54037;SDS011;39954;48.844;9.726;2023-03-17T00:04:59;26.85;;;9.30;;
54037;SDS011;39954;48.844;9.726;2023-03-17T00:06:01;28.38;;;9.13;;
54037;SDS011;39954;48.844;9.726;2023-03-17T00:07:08;27.25;;;9.00;;
54037;SDS011;39954;48.844;9.726;2023-03-17T00:08:18;27.35;;;9.18;;
54037;SDS011;39954;48.844;9.726;2023-03-17T00:09:27;73.43;;;14.82;;
54037;SDS011;39954;48.844;9.726;2023-03-17T00:10:29;42.42;;;11.63;;
54037;SDS011;39954;48.844;9.726;2023-03-17T00:11:34;68.43;;;14.02;;
54037;SDS011;39954;48.844;9.726;2023-03-17T00:12:36;90.10;;;16.45;;
54037;SDS011;39954;48.844;9.726;2023-03-17T00:13:41;33.40;;;10.20;;
54037;SDS011;39954;48.844;9.726;2023-03-17T00:14:44;65.00;;;14.25;;
54037;SDS011;39954;48.844;9.726;2023-03-17T00:15:49;36.40;;;9.77;;
54037;SDS011;39954;48.844;9.726;2023-03-17T00:16:57;42.30;;;10.70;;
54037;SDS011;39954;48.844;9.726;2023-03-17T00:17:59;46.75;;;11.32;;
54037;SDS011;39954;48.844;9.726;2023-03-17T00:19:04;43.95;;;10.93;;
54037;SDS011;39954;48.844;9.726;2023-03-17T00:20:10;36.33;;;10.05;;
54037;SDS011;39954;48.844;9.726;2023-03-17T00:21:20;35.20;;;10.40;;
54037;SDS011;39954;48.844;9.726;2023-03-17T00:22:26;46.58;;;10.95;;
54037;SDS011;39954;48.844;9.726;2023-03-17T00:23:31;83.90;;;14.48;;
54037;SDS011;39954;48.844;9.726;2023-03-17T00:24:35;77.63;;;14.05;;
54037;SDS011;39954;48.844;9.726;2023-03-17T00:25:40;40.80;;;9.52;;
54037;SDS011;39954;48.844;9.726;2023-03-17T00:26:43;31.83;;;7.88;;
54037;SDS011;39954;48.844;9.726;2023-03-17T00:27:48;34.83;;;8.52;;
54037;SDS011;39954;48.844;9.726;2023-03-17T00:28:51;32.90;;;8.48;;
54037;SDS011;39954;48.844;9.726;2023-03-17T00:29:57;34.63;;;8.75;;
54037;SDS011;39954;48.844;9.726;2023-03-17T00:31:00;23.10;;;7.60;;
54037;SDS011;39954;48.844;9.726;2023-03-17T00:32:05;35.90;;;8.02;;
54037;SDS011;39954;48.844;9.726;2023-03-17T00:33:22;45.88;;;10.00;;
54037;SDS011;39954;48.844;9.726;2023-03-17T00:35:34;82.82;;;12.73;;
54037;SDS011;39954;48.844;9.726;2023-03-17T00:36:36;100.05;;;14.25;;
54037;SDS011;39954;48.844;9.726;2023-03-17T00:37:41;63.05;;;11.40;;
54037;SDS011;39954;48.844;9.726;2023-03-17T00:38:44;44.75;;;9.23;;
54037;SDS011;39954;48.844;9.726;2023-03-17T00:39:52;71.00;;;11.68;;
54037;SDS011;39954;48.844;9.726;2023-03-17T00:40:55;56.92;;;10.90;;
54037;SDS011;39954;48.844;9.726;2023-03-17T00:41:59;55.63;;;11.10;;
54037;SDS011;39954;48.844;9.726;2023-03-17T00:43:01;72.75;;;12.02;;
54037;SDS011;39954;48.844;9.726;2023-03-17T00:44:08;62.97;;;11.40;;
54037;SDS011;39954;48.844;9.726;2023-03-17T00:45:10;66.15;;;12.05;;
54037;SDS011;39954;48.844;9.726;2023-03-17T00:46:17;211.02;;;28.67;;
54037;SDS011;39954;48.844;9.726;2023-03-17T00:47:24;95.90;;;14.50;;
54037;SDS011;39954;48.844;9.726;2023-03-17T00:48:29;98.53;;;15.27;;
54037;SDS011;39954;48.844;9.726;2023-03-17T00:49:31;133.05;;;18.33;;
54037;SDS011;39954;48.844;9.726;2023-03-17T00:50:36;102.43;;;15.60;;
54037;SDS011;39954;48.844;9.726;2023-03-17T00:51:38;71.18;;;12.38;;
54037;SDS011;39954;48.844;9.726;2023-03-17T00:52:44;121.10;;;16.77;;
54037;SDS011;39954;48.844;9.726;2023-03-17T00:53:46;42.78;;;9.57;;
54037;SDS011;39954;48.844;9.726;2023-03-17T00:54:53;54.15;;;10.90;;
54037;SDS011;39954;48.844;9.726;2023-03-17T00:55:56;79.18;;;12.35;;
54037;SDS011;39954;48.844;9.726;2023-03-17T00:57:00;50.10;;;10.30;;
54037;SDS011;39954;48.844;9.726;2023-03-17T00:58:05;61.53;;;10.98;;
54037;SDS011;39954;48.844;9.726;2023-03-17T00:59:17;79.32;;;13.57;;
54037;SDS011;39954;48.844;9.726;2023-03-17T01:00:27;55.40;;;10.80;;
54037;SDS011;39954;48.844;9.726;2023-03-17T01:01:33;65.53;;;11.73;;
54037;SDS011;39954;48.844;9.726;2023-03-17T01:02:35;73.55;;;12.38;;
54037;SDS011;39954;48.844;9.726;2023-03-17T01:03:40;32.65;;;8.50;;
54037;SDS011;39954;48.844;9.726;2023-03-17T01:04:42;27.67;;;7.93;;
54037;SDS011;39954;48.844;9.726;2023-03-17T01:05:59;57.85;;;10.75;;
54037;SDS011;39954;48.844;9.726;2023-03-17T01:07:03;43.63;;;9.27;;
54037;SDS011;39954;48.844;9.726;2023-03-17T01:08:11;125.47;;;17.90;;
54037;SDS011;39954;48.844;9.726;2023-03-17T01:09:17;60.42;;;11.20;;
54037;SDS011;39954;48.844;9.726;2023-03-17T01:10:24;64.97;;;11.45;;
54037;SDS011;39954;48.844;9.726;2023-03-17T01:11:30;89.78;;;14.52;;
54037;SDS011;39954;48.844;9.726;2023-03-17T01:12:32;111.05;;;16.48;;
54037;SDS011;39954;48.844;9.726;2023-03-17T01:13:37;106.97;;;16.00;;
54037;SDS011;39954;48.844;9.726;2023-03-17T01:14:40;83.22;;;13.68;;
54037;SDS011;39954;48.844;9.726;2023-03-17T01:15:46;69.80;;;12.48;;
54037;SDS011;39954;48.844;9.726;2023-03-17T01:16:49;76.60;;;12.98;;
54037;SDS011;39954;48.844;9.726;2023-03-17T01:17:55;72.70;;;12.15;;
54037;SDS011;39954;48.844;9.726;2023-03-17T01:18:58;100.10;;;14.90;;
54037;SDS011;39954;48.844;9.726;2023-03-17T01:20:04;136.85;;;19.00;;
54037;SDS011;39954;48.844;9.726;2023-03-17T01:21:07;64.85;;;12.02;;
54037;SDS011;39954;48.844;9.726;2023-03-17T01:22:11;87.28;;;14.02;;
54037;SDS011;39954;48.844;9.726;2023-03-17T01:23:14;50.40;;;10.70;;
54037;SDS011;39954;48.844;9.726;2023-03-17T01:24:19;45.42;;;10.05;;
54037;SDS011;39954;48.844;9.726;2023-03-17T01:25:24;102.82;;;15.18;;
54037;SDS011;39954;48.844;9.726;2023-03-17T01:26:29;88.50;;;15.02;;
54037;SDS011;39954;48.844;9.726;2023-03-17T01:27:33;80.38;;;14.20;;
54037;SDS011;39954;48.844;9.726;2023-03-17T01:28:38;101.15;;;15.77;;
54037;SDS011;39954;48.844;9.726;2023-03-17T01:29:40;81.43;;;13.52;;
54037;SDS011;39954;48.844;9.726;2023-03-17T01:30:45;45.17;;;9.90;;
54037;SDS011;39954;48.844;9.726;2023-03-17T01:31:47;43.03;;;8.88;;
54037;SDS011;39954;48.844;9.726;2023-03-17T01:32:53;46.17;;;9.35;;
54037;SDS011;39954;48.844;9.726;2023-03-17T01:33:56;51.33;;;10.13;;
54037;SDS011;39954;48.844;9.726;2023-03-17T01:35:01;42.67;;;8.77;;
54037;SDS011;39954;48.844;9.726;2023-03-17T01:36:05;61.70;;;10.90;;
54037;SDS011;39954;48.844;9.726;2023-03-17T01:37:10;38.35;;;8.65;;
54037;SDS011;39954;48.844;9.726;2023-03-17T01:38:13;35.53;;;8.25;;
54037;SDS011;39954;48.844;9.726;2023-03-17T01:39:18;54.85;;;10.65;;
54037;SDS011;39954;48.844;9.726;2023-03-17T01:40:21;41.33;;;8.30;;
54037;SDS011;39954;48.844;9.726;2023-03-17T01:41:32;70.78;;;12.18;;
54037;SDS011;39954;48.844;9.726;2023-03-17T01:42:34;58.35;;;10.15;;
54037;SDS011;39954;48.844;9.726;2023-03-17T01:43:39;67.03;;;11.15;;
54037;SDS011;39954;48.844;9.726;2023-03-17T01:44:55;29.73;;;8.07;;
54037;SDS011;39954;48.844;9.726;2023-03-17T01:46:15;46.17;;;9.00;;
54037;SDS011;39954;48.844;9.726;2023-03-17T01:47:21;58.55;;;10.43;;
54037;SDS011;39954;48.844;9.726;2023-03-17T01:48:28;108.35;;;15.90;;
54037;SDS011;39954;48.844;9.726;2023-03-17T01:49:36;74.35;;;12.07;;
54037;SDS011;39954;48.844;9.726;2023-03-17T01:50:42;57.05;;;9.35;;
54037;SDS011;39954;48.844;9.726;2023-03-17T01:51:55;56.83;;;10.35;;
54037;SDS011;39954;48.844;9.726;2023-03-17T01:53:05;26.85;;;7.15;;
54037;SDS011;39954;48.844;9.726;2023-03-17T01:54:08;28.63;;;7.32;;
54037;SDS011;39954;48.844;9.726;2023-03-17T01:55:14;35.13;;;8.35;;
54037;SDS011;39954;48.844;9.726;2023-03-17T01:56:21;35.45;;;8.10;;
54037;SDS011;39954;48.844;9.726;2023-03-17T01:57:28;58.42;;;10.75;;
54037;SDS011;39954;48.844;9.726;2023-03-17T01:58:37;79.18;;;13.13;;
54037;SDS011;39954;48.844;9.726;2023-03-17T01:59:41;156.38;;;21.35;;
54037;SDS011;39954;48.844;9.726;2023-03-17T02:00:49;50.67;;;10.13;;
54037;SDS011;39954;48.844;9.726;2023-03-17T02:01:53;46.20;;;10.05;;
54037;SDS011;39954;48.844;9.726;2023-03-17T02:03:03;50.75;;;9.52;;
54037;SDS011;39954;48.844;9.726;2023-03-17T02:04:06;42.80;;;8.55;;
54037;SDS011;39954;48.844;9.726;2023-03-17T02:05:12;50.67;;;10.07;;
54037;SDS011;39954;48.844;9.726;2023-03-17T02:06:17;52.25;;;10.50;;
54037;SDS011;39954;48.844;9.726;2023-03-17T02:07:23;60.13;;;10.45;;
54037;SDS011;39954;48.844;9.726;2023-03-17T02:08:26;64.53;;;11.35;;
54037;SDS011;39954;48.844;9.726;2023-03-17T02:09:31;87.35;;;13.55;;
54037;SDS011;39954;48.844;9.726;2023-03-17T02:10:34;130.85;;;17.95;;
54037;SDS011;39954;48.844;9.726;2023-03-17T02:11:42;73.28;;;11.55;;
54037;SDS011;39954;48.844;9.726;2023-03-17T02:12:45;50.72;;;9.75;;
54037;SDS011;39954;48.844;9.726;2023-03-17T02:13:54;48.85;;;8.90;;
54037;SDS011;39954;48.844;9.726;2023-03-17T02:14:56;58.58;;;10.23;;
54037;SDS011;39954;48.844;9.726;2023-03-17T02:16:01;55.15;;;9.73;;
54037;SDS011;39954;48.844;9.726;2023-03-17T02:17:04;51.05;;;10.38;;
54037;SDS011;39954;48.844;9.726;2023-03-17T02:18:10;32.80;;;8.73;;
54037;SDS011;39954;48.844;9.726;2023-03-17T02:19:14;27.95;;;7.60;;
54037;SDS011;39954;48.844;9.726;2023-03-17T02:21:54;76.45;;;12.07;;
54037;SDS011;39954;48.844;9.726;2023-03-17T02:22:59;53.63;;;10.20;;
54037;SDS011;39954;48.844;9.726;2023-03-17T02:24:04;47.20;;;9.80;;
54037;SDS011;39954;48.844;9.726;2023-03-17T02:25:12;92.53;;;13.98;;
54037;SDS011;39954;48.844;9.726;2023-03-17T02:26:15;50.35;;;10.20;;
54037;SDS011;39954;48.844;9.726;2023-03-17T02:27:23;48.17;;;10.15;;
54037;SDS011;39954;48.844;9.726;2023-03-17T02:28:34;80.90;;;12.98;;
54037;SDS011;39954;48.844;9.726;2023-03-17T02:29:36;76.78;;;12.52;;
54037;SDS011;39954;48.844;9.726;2023-03-17T02:30:41;88.38;;;14.43;;
54037;SDS011;39954;48.844;9.726;2023-03-17T02:31:43;80.45;;;12.95;;
54037;SDS011;39954;48.844;9.726;2023-03-17T02:32:48;35.28;;;7.90;;
54037;SDS011;39954;48.844;9.726;2023-03-17T02:33:51;47.35;;;9.60;;
54037;SDS011;39954;48.844;9.726;2023-03-17T02:34:56;47.13;;;9.45;;
54037;SDS011;39954;48.844;9.726;2023-03-17T02:35:58;39.22;;;8.73;;
54037;SDS011;39954;48.844;9.726;2023-03-17T02:37:06;31.40;;;8.43;;
54037;SDS011;39954;48.844;9.726;2023-03-17T02:38:09;30.02;;;8.10;;
54037;SDS011;39954;48.844;9.726;2023-03-17T02:39:14;29.45;;;7.80;;
54037;SDS011;39954;48.844;9.726;2023-03-17T02:40:16;34.28;;;8.02;;
54037;SDS011;39954;48.844;9.726;2023-03-17T02:41:20;41.63;;;9.13;;
54037;SDS011;39954;48.844;9.726;2023-03-17T02:42:23;33.95;;;8.48;;
54037;SDS011;39954;48.844;9.726;2023-03-17T02:43:28;113.65;;;17.95;;
54037;SDS011;39954;48.844;9.726;2023-03-17T02:44:30;46.50;;;9.98;;
54037;SDS011;39954;48.844;9.726;2023-03-17T02:45:35;72.40;;;12.20;;
54037;SDS011;39954;48.844;9.726;2023-03-17T02:46:37;95.45;;;14.80;;
54037;SDS011;39954;48.844;9.726;2023-03-17T02:47:41;157.90;;;20.27;;
54037;SDS011;39954;48.844;9.726;2023-03-17T02:48:44;76.65;;;13.02;;
54037;SDS011;39954;48.844;9.726;2023-03-17T02:49:49;38.15;;;9.02;;
54037;SDS011;39954;48.844;9.726;2023-03-17T02:50:51;26.35;;;7.38;;
54037;SDS011;39954;48.844;9.726;2023-03-17T02:51:56;27.98;;;7.82;;
54037;SDS011;39954;48.844;9.726;2023-03-17T02:53:01;42.05;;;8.63;;
54037;SDS011;39954;48.844;9.726;2023-03-17T02:54:06;25.75;;;8.43;;
54037;SDS011;39954;48.844;9.726;2023-03-17T02:55:10;40.67;;;8.95;;
54037;SDS011;39954;48.844;9.726;2023-03-17T02:56:12;45.72;;;9.68;;
54037;SDS011;39954;48.844;9.726;2023-03-17T02:57:17;21.73;;;6.80;;
54037;SDS011;39954;48.844;9.726;2023-03-17T02:58:19;17.00;;;6.72;;
54037;SDS011;39954;48.844;9.726;2023-03-17T02:59:24;38.97;;;8.60;;
54037;SDS011;39954;48.844;9.726;2023-03-17T03:00:29;39.33;;;9.02;;
54037;SDS011;39954;48.844;9.726;2023-03-17T03:01:31;69.85;;;11.82;;
54037;SDS011;39954;48.844;9.726;2023-03-17T03:02:37;58.42;;;11.18;;
54037;SDS011;39954;48.844;9.726;2023-03-17T03:03:39;70.25;;;12.50;;
54037;SDS011;39954;48.844;9.726;2023-03-17T03:04:44;82.22;;;13.75;;
54037;SDS011;39954;48.844;9.726;2023-03-17T03:05:46;29.05;;;8.38;;
54037;SDS011;39954;48.844;9.726;2023-03-17T03:06:51;28.73;;;8.13;;
54037;SDS011;39954;48.844;9.726;2023-03-17T03:07:54;91.07;;;14.20;;
54037;SDS011;39954;48.844;9.726;2023-03-17T03:09:01;32.78;;;8.77;;
54037;SDS011;39954;48.844;9.726;2023-03-17T03:10:04;46.17;;;9.98;;
54037;SDS011;39954;48.844;9.726;2023-03-17T03:11:10;49.17;;;10.35;;
54037;SDS011;39954;48.844;9.726;2023-03-17T03:12:12;30.75;;;8.75;;
54037;SDS011;39954;48.844;9.726;2023-03-17T03:13:17;39.20;;;9.38;;
54037;SDS011;39954;48.844;9.726;2023-03-17T03:14:19;78.95;;;13.82;;
54037;SDS011;39954;48.844;9.726;2023-03-17T03:15:24;64.55;;;12.05;;
54037;SDS011;39954;48.844;9.726;2023-03-17T03:16:26;58.05;;;11.32;;
54037;SDS011;39954;48.844;9.726;2023-03-17T03:17:31;63.03;;;12.18;;
54037;SDS011;39954;48.844;9.726;2023-03-17T03:18:33;124.20;;;18.35;;
54037;SDS011;39954;48.844;9.726;2023-03-17T03:19:38;79.32;;;13.80;;
54037;SDS011;39954;48.844;9.726;2023-03-17T03:20:41;93.72;;;14.90;;
54037;SDS011;39954;48.844;9.726;2023-03-17T03:21:46;75.35;;;13.10;;
54037;SDS011;39954;48.844;9.726;2023-03-17T03:22:48;36.50;;;8.77;;
54037;SDS011;39954;48.844;9.726;2023-03-17T03:23:53;46.92;;;9.85;;
54037;SDS011;39954;48.844;9.726;2023-03-17T03:24:57;63.88;;;11.23;;
54037;SDS011;39954;48.844;9.726;2023-03-17T03:26:02;53.03;;;11.07;;
54037;SDS011;39954;48.844;9.726;2023-03-17T03:27:05;45.72;;;9.55;;
54037;SDS011;39954;48.844;9.726;2023-03-17T03:28:09;53.03;;;10.30;;
54037;SDS011;39954;48.844;9.726;2023-03-17T03:29:11;72.40;;;11.95;;
54037;SDS011;39954;48.844;9.726;2023-03-17T03:30:17;46.42;;;9.45;;
54037;SDS011;39954;48.844;9.726;2023-03-17T03:31:19;52.90;;;10.38;;
54037;SDS011;39954;48.844;9.726;2023-03-17T03:32:24;114.70;;;16.58;;
54037;SDS011;39954;48.844;9.726;2023-03-17T03:33:26;56.58;;;10.75;;
54037;SDS011;39954;48.844;9.726;2023-03-17T03:34:31;151.30;;;19.83;;
54037;SDS011;39954;48.844;9.726;2023-03-17T03:35:33;88.55;;;13.98;;
54037;SDS011;39954;48.844;9.726;2023-03-17T03:36:38;89.72;;;14.63;;
54037;SDS011;39954;48.844;9.726;2023-03-17T03:37:40;91.07;;;14.88;;
54037;SDS011;39954;48.844;9.726;2023-03-17T03:38:45;101.15;;;15.88;;
54037;SDS011;39954;48.844;9.726;2023-03-17T03:39:47;84.05;;;13.68;;
54037;SDS011;39954;48.844;9.726;2023-03-17T03:40:55;62.08;;;11.40;;
54037;SDS011;39954;48.844;9.726;2023-03-17T03:41:57;73.55;;;12.52;;
54037;SDS011;39954;48.844;9.726;2023-03-17T03:43:02;45.60;;;9.95;;
54037;SDS011;39954;48.844;9.726;2023-03-17T03:44:22;34.33;;;8.77;;
54037;SDS011;39954;48.844;9.726;2023-03-17T03:45:27;33.60;;;8.80;;
54037;SDS011;39954;48.844;9.726;2023-03-17T03:46:29;41.28;;;9.13;;
54037;SDS011;39954;48.844;9.726;2023-03-17T03:47:34;72.20;;;12.52;;
54037;SDS011;39954;48.844;9.726;2023-03-17T03:48:36;73.70;;;13.25;;
54037;SDS011;39954;48.844;9.726;2023-03-17T03:49:41;68.32;;;12.68;;
54037;SDS011;39954;48.844;9.726;2023-03-17T03:50:43;73.13;;;12.93;;
54037;SDS011;39954;48.844;9.726;2023-03-17T03:51:48;77.88;;;13.88;;
54037;SDS011;39954;48.844;9.726;2023-03-17T03:52:50;38.92;;;9.60;;
54037;SDS011;39954;48.844;9.726;2023-03-17T03:53:54;38.38;;;9.23;;
54037;SDS011;39954;48.844;9.726;2023-03-17T03:54:56;34.55;;;9.40;;
54037;SDS011;39954;48.844;9.726;2023-03-17T03:56:04;34.75;;;9.90;;
54037;SDS011;39954;48.844;9.726;2023-03-17T03:57:07;30.65;;;8.90;;
54037;SDS011;39954;48.844;9.726;2023-03-17T03:58:12;39.88;;;9.98;;
54037;SDS011;39954;48.844;9.726;2023-03-17T03:59:15;37.70;;;10.05;;
54037;SDS011;39954;48.844;9.726;2023-03-17T04:00:20;39.47;;;10.32;;
54037;SDS011;39954;48.844;9.726;2023-03-17T04:01:22;32.35;;;9.52;;
54037;SDS011;39954;48.844;9.726;2023-03-17T04:02:27;86.75;;;14.65;;
54037;SDS011;39954;48.844;9.726;2023-03-17T04:03:30;55.08;;;11.63;;
54037;SDS011;39954;48.844;9.726;2023-03-17T04:04:34;79.03;;;14.68;;
54037;SDS011;39954;48.844;9.726;2023-03-17T04:05:37;77.43;;;14.43;;
54037;SDS011;39954;48.844;9.726;2023-03-17T04:06:42;113.85;;;18.27;;
54037;SDS011;39954;48.844;9.726;2023-03-17T04:07:44;90.38;;;16.27;;
54037;SDS011;39954;48.844;9.726;2023-03-17T04:08:49;90.43;;;16.42;;
54037;SDS011;39954;48.844;9.726;2023-03-17T04:09:51;79.65;;;14.57;;
54037;SDS011;39954;48.844;9.726;2023-03-17T04:10:56;87.25;;;15.63;;
54037;SDS011;39954;48.844;9.726;2023-03-17T04:12:00;44.70;;;11.57;;
54037;SDS011;39954;48.844;9.726;2023-03-17T04:13:05;61.45;;;13.15;;
54037;SDS011;39954;48.844;9.726;2023-03-17T04:14:08;75.07;;;14.63;;
54037;SDS011;39954;48.844;9.726;2023-03-17T04:15:14;46.20;;;11.02;;
54037;SDS011;39954;48.844;9.726;2023-03-17T04:16:18;56.38;;;11.65;;
54037;SDS011;39954;48.844;9.726;2023-03-17T04:17:23;49.47;;;11.63;;
54037;SDS011;39954;48.844;9.726;2023-03-17T04:18:25;73.57;;;13.02;;
54037;SDS011;39954;48.844;9.726;2023-03-17T04:19:29;53.80;;;11.63;;
54037;SDS011;39954;48.844;9.726;2023-03-17T04:20:31;93.10;;;14.23;;
54037;SDS011;39954;48.844;9.726;2023-03-17T04:21:36;102.28;;;15.13;;
54037;SDS011;39954;48.844;9.726;2023-03-17T04:22:38;115.07;;;15.43;;
54037;SDS011;39954;48.844;9.726;2023-03-17T04:23:43;139.98;;;17.90;;
54037;SDS011;39954;48.844;9.726;2023-03-17T04:24:45;123.97;;;16.58;;
54037;SDS011;39954;48.844;9.726;2023-03-17T04:25:50;163.00;;;19.70;;
54037;SDS011;39954;48.844;9.726;2023-03-17T04:26:53;80.65;;;13.15;;
54037;SDS011;39954;48.844;9.726;2023-03-17T04:28:00;70.32;;;12.73;;
54037;SDS011;39954;48.844;9.726;2023-03-17T04:29:02;108.38;;;13.98;;
54037;SDS011;39954;48.844;9.726;2023-03-17T04:30:10;128.30;;;14.90;;
54037;SDS011;39954;48.844;9.726;2023-03-17T04:31:14;111.47;;;13.55;;
54037;SDS011;39954;48.844;9.726;2023-03-17T04:32:19;136.20;;;15.05;;
54037;SDS011;39954;48.844;9.726;2023-03-17T04:33:21;256.83;;;22.52;;
54037;SDS011;39954;48.844;9.726;2023-03-17T04:34:25;119.75;;;13.93;;
54037;SDS011;39954;48.844;9.726;2023-03-17T04:35:28;113.10;;;13.90;;
54037;SDS011;39954;48.844;9.726;2023-03-17T04:36:33;239.98;;;20.50;;
54037;SDS011;39954;48.844;9.726;2023-03-17T04:37:35;167.38;;;17.02;;
54037;SDS011;39954;48.844;9.726;2023-03-17T04:38:40;183.90;;;18.63;;
54037;SDS011;39954;48.844;9.726;2023-03-17T04:39:42;191.45;;;19.17;;
54037;SDS011;39954;48.844;9.726;2023-03-17T04:40:46;201.77;;;19.70;;
54037;SDS011;39954;48.844;9.726;2023-03-17T04:41:49;306.60;;;25.83;;
54037;SDS011;39954;48.844;9.726;2023-03-17T04:42:54;113.05;;;13.75;;
54037;SDS011;39954;48.844;9.726;2023-03-17T04:43:59;95.43;;;12.65;;
54037;SDS011;39954;48.844;9.726;2023-03-17T04:45:04;210.82;;;18.95;;
54037;SDS011;39954;48.844;9.726;2023-03-17T04:46:07;145.98;;;14.98;;
54037;SDS011;39954;48.844;9.726;2023-03-17T04:47:12;128.73;;;13.82;;
54037;SDS011;39954;48.844;9.726;2023-03-17T04:48:14;309.92;;;25.40;;
54037;SDS011;39954;48.844;9.726;2023-03-17T04:49:19;157.93;;;14.82;;
54037;SDS011;39954;48.844;9.726;2023-03-17T04:50:21;173.73;;;15.50;;
54037;SDS011;39954;48.844;9.726;2023-03-17T04:51:26;295.60;;;24.15;;
54037;SDS011;39954;48.844;9.726;2023-03-17T04:52:29;119.80;;;13.15;;
54037;SDS011;39954;48.844;9.726;2023-03-17T04:53:33;127.05;;;13.30;;
54037;SDS011;39954;48.844;9.726;2023-03-17T04:54:36;240.00;;;21.05;;
54037;SDS011;39954;48.844;9.726;2023-03-17T04:55:40;288.85;;;23.65;;
54037;SDS011;39954;48.844;9.726;2023-03-17T04:56:43;162.70;;;16.70;;
54037;SDS011;39954;48.844;9.726;2023-03-17T04:57:47;210.98;;;19.02;;
54037;SDS011;39954;48.844;9.726;2023-03-17T04:58:49;229.93;;;20.70;;
54037;SDS011;39954;48.844;9.726;2023-03-17T04:59:57;81.95;;;11.95;;
54037;SDS011;39954;48.844;9.726;2023-03-17T05:00:59;98.78;;;11.80;;
54037;SDS011;39954;48.844;9.726;2023-03-17T05:02:04;187.18;;;17.80;;
54037;SDS011;39954;48.844;9.726;2023-03-17T05:03:06;100.43;;;12.25;;
54037;SDS011;39954;48.844;9.726;2023-03-17T05:04:27;141.15;;;14.40;;
54037;SDS011;39954;48.844;9.726;2023-03-17T05:05:32;102.75;;;12.63;;
54037;SDS011;39954;48.844;9.726;2023-03-17T05:06:38;106.78;;;13.00;;
54037;SDS011;39954;48.844;9.726;2023-03-17T05:07:41;189.38;;;17.42;;
54037;SDS011;39954;48.844;9.726;2023-03-17T05:08:45;217.80;;;17.83;;
54037;SDS011;39954;48.844;9.726;2023-03-17T05:09:47;174.25;;;15.85;;
54037;SDS011;39954;48.844;9.726;2023-03-17T05:10:52;168.77;;;16.52;;
54037;SDS011;39954;48.844;9.726;2023-03-17T05:11:55;119.28;;;12.70;;
54037;SDS011;39954;48.844;9.726;2023-03-17T05:12:59;63.15;;;9.77;;
54037;SDS011;39954;48.844;9.726;2023-03-17T05:14:01;68.95;;;9.60;;
54037;SDS011;39954;48.844;9.726;2023-03-17T05:15:09;161.73;;;16.25;;
54037;SDS011;39954;48.844;9.726;2023-03-17T05:16:12;91.28;;;10.75;;
54037;SDS011;39954;48.844;9.726;2023-03-17T05:17:17;64.70;;;10.05;;
54037;SDS011;39954;48.844;9.726;2023-03-17T05:18:20;117.20;;;12.13;;
54037;SDS011;39954;48.844;9.726;2023-03-17T05:19:26;82.20;;;11.15;;
54037;SDS011;39954;48.844;9.726;2023-03-17T05:20:28;180.63;;;15.95;;
54037;SDS011;39954;48.844;9.726;2023-03-17T05:21:33;159.88;;;15.27;;
54037;SDS011;39954;48.844;9.726;2023-03-17T05:22:35;86.93;;;11.23;;
54037;SDS011;39954;48.844;9.726;2023-03-17T05:23:40;161.65;;;16.30;;
54037;SDS011;39954;48.844;9.726;2023-03-17T05:24:42;201.50;;;18.85;;
54037;SDS011;39954;48.844;9.726;2023-03-17T05:25:48;194.65;;;17.88;;
54037;SDS011;39954;48.844;9.726;2023-03-17T05:26:50;156.98;;;15.68;;
54037;SDS011;39954;48.844;9.726;2023-03-17T05:27:54;207.27;;;17.23;;
54037;SDS011;39954;48.844;9.726;2023-03-17T05:28:56;72.63;;;10.00;;
54037;SDS011;39954;48.844;9.726;2023-03-17T05:30:01;76.05;;;9.98;;
54037;SDS011;39954;48.844;9.726;2023-03-17T05:31:06;96.60;;;10.65;;
54037;SDS011;39954;48.844;9.726;2023-03-17T05:32:12;82.63;;;10.32;;
54037;SDS011;39954;48.844;9.726;2023-03-17T05:33:14;92.38;;;11.43;;
54037;SDS011;39954;48.844;9.726;2023-03-17T05:34:20;124.93;;;12.23;;
54037;SDS011;39954;48.844;9.726;2023-03-17T05:35:22;116.15;;;11.82;;
54037;SDS011;39954;48.844;9.726;2023-03-17T05:36:27;171.68;;;14.57;;
54037;SDS011;39954;48.844;9.726;2023-03-17T05:37:29;104.03;;;11.07;;
54037;SDS011;39954;48.844;9.726;2023-03-17T05:38:34;128.85;;;12.95;;
54037;SDS011;39954;48.844;9.726;2023-03-17T05:39:36;116.47;;;11.70;;
54037;SDS011;39954;48.844;9.726;2023-03-17T05:40:41;185.80;;;16.92;;
54037;SDS011;39954;48.844;9.726;2023-03-17T05:41:43;283.92;;;21.92;;
54037;SDS011;39954;48.844;9.726;2023-03-17T05:42:48;166.80;;;16.50;;
54037;SDS011;39954;48.844;9.726;2023-03-17T05:43:51;185.40;;;16.67;;
54037;SDS011;39954;48.844;9.726;2023-03-17T05:44:56;101.40;;;11.50;;
54037;SDS011;39954;48.844;9.726;2023-03-17T05:45:58;114.43;;;11.77;;
54037;SDS011;39954;48.844;9.726;2023-03-17T05:47:06;103.65;;;11.13;;
54037;SDS011;39954;48.844;9.726;2023-03-17T05:48:09;167.07;;;14.27;;
54037;SDS011;39954;48.844;9.726;2023-03-17T05:49:14;82.25;;;10.05;;
54037;SDS011;39954;48.844;9.726;2023-03-17T05:50:16;207.02;;;16.33;;
54037;SDS011;39954;48.844;9.726;2023-03-17T05:51:22;177.60;;;14.63;;
54037;SDS011;39954;48.844;9.726;2023-03-17T05:52:24;176.00;;;15.25;;
54037;SDS011;39954;48.844;9.726;2023-03-17T05:53:28;389.38;;;29.25;;
54037;SDS011;39954;48.844;9.726;2023-03-17T05:54:31;212.38;;;16.05;;
54037;SDS011;39954;48.844;9.726;2023-03-17T05:55:36;237.77;;;18.90;;
54037;SDS011;39954;48.844;9.726;2023-03-17T05:56:38;189.00;;;15.63;;
54037;SDS011;39954;48.844;9.726;2023-03-17T05:57:43;238.40;;;20.25;;
54037;SDS011;39954;48.844;9.726;2023-03-17T05:58:45;188.38;;;16.80;;
54037;SDS011;39954;48.844;9.726;2023-03-17T05:59:49;222.95;;;18.08;;
54037;SDS011;39954;48.844;9.726;2023-03-17T06:00:51;154.48;;;13.73;;
54037;SDS011;39954;48.844;9.726;2023-03-17T06:01:56;75.43;;;8.90;;
54037;SDS011;39954;48.844;9.726;2023-03-17T06:03:01;86.55;;;10.02;;
54037;SDS011;39954;48.844;9.726;2023-03-17T06:04:06;262.92;;;21.65;;
54037;SDS011;39954;48.844;9.726;2023-03-17T06:05:08;85.55;;;10.40;;
54037;SDS011;39954;48.844;9.726;2023-03-17T06:06:13;113.78;;;11.38;;
54037;SDS011;39954;48.844;9.726;2023-03-17T06:07:19;94.75;;;10.52;;
54037;SDS011;39954;48.844;9.726;2023-03-17T06:08:21;154.07;;;13.18;;
54037;SDS011;39954;48.844;9.726;2023-03-17T06:09:25;77.80;;;9.40;;
54037;SDS011;39954;48.844;9.726;2023-03-17T06:10:28;79.30;;;9.25;;
54037;SDS011;39954;48.844;9.726;2023-03-17T06:11:33;150.80;;;13.38;;
54037;SDS011;39954;48.844;9.726;2023-03-17T06:12:35;153.98;;;12.82;;
54037;SDS011;39954;48.844;9.726;2023-03-17T06:13:40;115.65;;;11.32;;
54037;SDS011;39954;48.844;9.726;2023-03-17T06:14:42;186.38;;;16.33;;
54037;SDS011;39954;48.844;9.726;2023-03-17T06:15:47;189.82;;;16.27;;
54037;SDS011;39954;48.844;9.726;2023-03-17T06:16:52;204.48;;;16.83;;
54037;SDS011;39954;48.844;9.726;2023-03-17T06:17:57;189.90;;;15.05;;
54037;SDS011;39954;48.844;9.726;2023-03-17T06:19:05;160.43;;;13.00;;
54037;SDS011;39954;48.844;9.726;2023-03-17T06:20:08;42.15;;;9.63;;